Latest Weather Observations for Jervois

IDD60801

Issued at 6:01 pm CST Wednesday 24 August 2016 (issued every 30 minutes, with the page automatically refreshed every 10 minutes)

About weather observations | Map of weather stations | Latest weather observations for NT | Other Formats
Station Details ID: 015602 Name: JERVOIS Lat: -22.95 Lon: 136.14 Height: 328.0 m
Data from the previous 72 hours. | See also: Recent months at Jervois
Date/Time
CST
Temp
°C
App
Temp
°C
Dew
Point
°C
Rel
Hum
%
Delta-T
°C
Wind Press
QNH
hPa
Press
MSL
hPa
Rain since
9am
mm
Dir  Spd
km/h
Gust
km/h
Spd
kts
Gust
kts
24/06:00pm 16.6 12.0 1.8 37 6.7 SSE 15 24 8 13 1016.3 1015.8 0.0
24/05:30pm 17.3 11.9 1.4 34 7.2 SSE 19 35 10 19 1016.0 - 0.0
24/05:00pm 17.8 12.8 1.5 33 7.4 S 17 26 9 14 1015.9 - 0.0
24/04:30pm 18.1 12.5 1.4 32 7.6 SSE 20 30 11 16 1015.5 - 0.0
24/04:00pm 18.2 13.0 2.2 34 7.4 S 19 32 10 17 1015.4 - 0.0
24/03:30pm 17.9 12.4 1.7 33 7.4 SSE 20 33 11 18 1015.3 - 0.0
24/03:00pm 17.9 12.6 2.0 34 7.3 S 19 32 10 17 1015.2 1014.8 0.0
24/02:30pm 17.9 12.5 2.7 36 7.1 S 20 33 11 18 1015.5 - 0.0
24/02:00pm 17.4 11.7 3.1 38 6.7 SSE 22 32 12 17 1015.8 - 0.0
24/01:30pm 17.4 12.1 2.8 37 6.8 S 20 37 11 20 1016.2 - 0.0
24/01:00pm 17.0 12.0 3.7 41 6.3 S 19 30 10 16 1016.7 - 0.0
24/12:30pm 17.0 12.5 4.2 42 6.1 S 17 30 9 16 1017.1 - 0.0
24/12:00pm 16.1 11.0 4.0 44 5.7 SSE 20 28 11 15 1017.5 1017.1 0.0
24/11:30am 16.0 11.4 3.9 44 5.7 S 17 32 9 17 1017.7 - 0.0
24/11:00am 15.5 10.7 4.6 48 5.2 SSE 19 28 10 15 1018.1 - 0.0
24/10:30am 15.0 10.9 6.0 55 4.4 SSE 17 28 9 15 1018.3 - 0.0
24/10:00am 14.4 10.4 6.7 60 3.8 SSE 17 24 9 13 1018.4 - 0.0
24/09:30am 13.8 10.2 6.9 63 3.4 S 15 20 8 11 1018.6 - 0.0
24/09:00am 12.7 8.7 6.7 67 2.9 S 17 24 9 13 1018.1 1017.6 0.8
24/08:30am 12.0 8.0 6.6 69 2.6 S 17 26 9 14 1017.6 - 0.8
24/08:00am 11.0 7.9 7.1 77 1.9 SSW 13 20 7 11 1017.2 - 0.8
24/07:30am 10.0 7.0 7.5 84 1.2 SSW 13 17 7 9 1016.8 - 0.8
24/07:00am 9.4 6.8 7.8 90 0.8 SSW 11 19 6 10 1016.4 - 0.8
24/06:30am 9.0 6.8 8.0 93 0.5 SSW 9 13 5 7 1015.9 - 0.8
24/06:00am 9.1 7.0 8.1 93 0.5 SSW 9 13 5 7 1015.6 1015.1 0.8
24/05:30am 9.4 7.3 8.2 92 0.6 SSW 9 13 5 7 1015.2 - 0.8
24/05:00am 9.6 7.1 8.4 92 0.6 SSW 11 17 6 9 1014.5 - 0.8
24/04:30am 9.8 7.0 8.4 91 0.7 SSW 13 19 7 10 1014.2 - 0.8
24/04:00am 9.8 7.0 8.6 92 0.6 SSW 13 20 7 11 1014.1 - 0.8
24/03:30am 9.8 7.4 8.8 93 0.5 SSW 11 17 6 9 1013.9 - 0.8
24/03:00am 10.0 7.8 9.2 95 0.4 SSW 11 17 6 9 1013.9 1013.4 0.8
24/02:30am 10.2 8.3 9.2 93 0.5 S 9 15 5 8 1013.9 - 0.8
24/02:00am 10.4 9.0 9.4 93 0.5 SSW 7 13 4 7 1014.0 - 0.8
24/01:30am 10.8 9.0 9.4 91 0.7 SSW 9 15 5 8 1014.0 - 0.8
24/01:00am 11.2 9.0 9.4 89 0.9 SSW 11 17 6 9 1014.4 - 0.8
24/12:30am 11.4 9.3 9.9 90 0.8 SSW 11 17 6 9 1014.5 - 0.8
24/12:00am 11.6 8.0 9.9 89 0.9 S 19 26 10 14 1014.4 1013.8 0.8
 
Date/Time
CST
Temp
°C
App
Temp
°C
Dew
Point
°C
Rel
Hum
%
Delta-T
°C
Wind Press
QNH
hPa
Press
MSL
hPa
Rain since
9am
mm
Dir  Spd
km/h
Gust
km/h
Spd
kts
Gust
kts
23/11:30pm 11.6 9.2 9.9 89 0.9 SSW 13 22 7 12 1014.5 - 0.8
23/11:00pm 11.6 7.9 9.3 86 1.2 S 19 30 10 16 1014.3 - 0.8
23/10:30pm 11.9 8.3 8.5 80 1.7 S 17 30 9 16 1014.2 - 0.8
23/10:00pm 12.0 8.2 9.1 82 1.5 S 19 32 10 17 1014.2 - 0.8
23/09:30pm 12.2 8.2 10.3 88 1.0 S 22 33 12 18 1014.2 - 0.8
23/09:00pm 12.3 8.3 10.4 88 1.0 S 22 37 12 20 1013.7 1013.1 0.8
23/08:30pm 12.6 9.2 11.1 91 0.8 S 20 37 11 20 1013.0 - 0.8
23/08:00pm 13.2 9.1 11.5 89 0.9 S 24 43 13 23 1012.7 - 0.8
23/07:30pm 13.3 10.1 11.8 91 0.8 S 20 33 11 18 1012.5 - 0.8
23/07:00pm 13.4 10.5 12.3 93 0.6 S 19 30 10 16 1011.7 - 0.8
23/06:30pm 13.8 11.1 12.9 94 0.5 S 19 28 10 15 1011.0 - 0.8
23/06:00pm 13.8 11.1 12.9 94 0.5 S 19 33 10 18 1010.2 1009.6 0.8
23/05:30pm 14.1 11.6 13.4 96 0.4 SSW 19 30 10 16 1010.2 - 0.8
23/05:00pm 14.8 12.8 13.9 94 0.5 S 17 30 9 16 1009.4 - 0.8
23/04:30pm 15.4 13.1 14.2 92 0.7 S 19 28 10 15 1009.1 - 0.8
23/04:00pm 15.7 13.9 14.5 93 0.7 S 17 22 9 12 1008.9 - 0.8
23/03:30pm 15.5 14.2 14.8 96 0.4 S 15 20 8 11 1008.6 - 0.8
23/03:00pm 15.8 14.1 14.8 94 0.6 S 17 22 9 12 1008.2 1007.7 0.8
23/02:30pm 16.0 14.3 14.8 93 0.7 S 17 24 9 13 1008.0 - 0.8
23/02:00pm 16.2 14.9 14.7 91 0.9 S 15 22 8 12 1008.4 - 0.8
23/01:30pm 16.6 15.8 15.1 91 0.9 S 13 19 7 10 1008.6 - 0.8
23/01:00pm 16.1 15.0 15.3 95 0.5 S 15 20 8 11 1008.9 - 0.8
23/12:30pm 15.8 14.6 15.1 96 0.4 S 15 24 8 13 1009.4 - 0.8
23/12:00pm 15.6 14.8 15.1 97 0.3 S 13 22 7 12 1009.6 1009.0 0.4
23/11:30am 16.1 16.3 15.8 98 0.2 SSE 9 15 5 8 1010.0 - 0.0
23/11:00am 16.0 15.4 15.7 98 0.2 SE 13 17 7 9 1010.1 - 0.0
23/10:30am 15.9 15.7 15.7 99 0.1 ESE 11 15 6 8 1010.3 - 0.0
23/10:00am 15.9 16.0 15.6 98 0.2 E 9 13 5 7 1010.5 - 0.0
23/09:30am 15.9 15.7 15.6 98 0.2 E 11 17 6 9 1010.4 - 0.0
23/09:00am 15.7 16.1 15.4 98 0.2 ESE 7 13 4 7 1010.7 1010.2 18.4
23/08:30am 15.6 15.2 15.3 98 0.2 E 11 15 6 8 1010.6 - 18.4
23/08:00am 15.4 16.3 15.1 98 0.2 SE 4 7 2 4 1010.8 - 18.4
23/07:30am 15.2 15.5 15.0 99 0.1 ESE 7 13 4 7 1010.2 - 18.4
23/07:00am 15.3 15.2 15.0 98 0.2 SE 9 15 5 8 1010.6 - 18.2
23/06:30am 15.3 14.5 15.1 99 0.1 ESE 13 20 7 11 1009.8 - 18.0
23/06:00am 15.5 14.7 15.2 98 0.2 ESE 13 19 7 10 1009.4 1008.8 18.0
23/05:30am 15.5 14.7 15.2 98 0.2 ESE 13 19 7 10 1009.3 - 18.0
23/05:00am 15.5 15.1 15.2 98 0.2 SSE 11 17 6 9 1009.5 - 18.0
23/04:30am 15.5 15.0 15.0 97 0.3 SSE 11 17 6 9 1009.8 - 17.8
23/04:00am 15.6 15.6 15.3 98 0.2 SSE 9 13 5 7 1009.8 - 17.8
23/03:30am 15.6 15.2 15.1 97 0.3 S 11 15 6 8 1010.0 - 17.8
23/03:00am 15.6 15.1 14.9 96 0.4 E 11 17 6 9 1009.6 1009.2 17.6
23/02:30am 15.5 15.4 15.0 97 0.3 ESE 9 15 5 8 1009.8 - 17.6
23/02:00am 15.5 15.4 15.0 97 0.3 SE 9 15 5 8 1010.2 - 17.6
23/01:30am 15.5 15.3 14.8 96 0.4 ESE 9 15 5 8 1010.1 - 17.2
23/01:00am 15.5 15.3 14.6 94 0.5 ESE 9 15 5 8 1010.3 - 17.0
23/12:30am 15.4 14.8 14.7 96 0.4 SE 11 15 6 8 1010.7 - 17.0
23/12:00am 15.4 14.8 14.7 96 0.4 SSE 11 17 6 9 1010.8 1010.3 17.0
 
Date/Time
CST
Temp
°C
App
Temp
°C
Dew
Point
°C
Rel
Hum
%
Delta-T
°C
Wind Press
QNH
hPa
Press
MSL
hPa
Rain since
9am
mm
Dir  Spd
km/h
Gust
km/h
Spd
kts
Gust
kts
22/11:30pm 15.3 14.7 14.6 96 0.4 SE 11 15 6 8 1010.8 - 17.0
22/11:00pm 15.3 14.7 14.6 96 0.4 SE 11 17 6 9 1010.9 - 17.0
22/10:30pm 15.3 14.7 14.6 96 0.4 SSE 11 17 6 9 1011.3 - 17.0
22/10:00pm 15.2 12.9 14.7 97 0.3 E 20 30 11 16 1010.7 - 17.0
22/09:30pm 15.3 14.8 14.8 97 0.3 SE 11 19 6 10 1011.6 - 16.8
22/09:00pm 15.6 15.5 14.9 96 0.4 SSE 9 15 5 8 1012.0 1011.4 12.4
22/08:30pm 15.8 14.9 14.8 94 0.6 SSE 13 20 7 11 1011.0 - 10.4
22/08:00pm 16.0 14.8 15.0 94 0.6 SE 15 26 8 14 1010.4 - 9.8
22/07:30pm 16.3 14.4 15.3 94 0.6 SSE 19 30 10 16 1009.7 - 9.8
22/07:00pm 16.8 15.1 15.8 94 0.6 SSE 19 26 10 14 1009.5 - 9.4
22/06:30pm 17.5 16.7 16.0 91 0.9 SSE 15 20 8 11 1009.7 - 8.8
22/06:00pm 17.5 16.5 16.5 94 0.6 SSE 17 26 9 14 1009.5 1008.8 8.6
22/05:30pm 17.6 16.1 16.4 93 0.7 S 19 30 10 16 1008.9 - 6.6
22/05:00pm 19.6 19.3 16.5 82 1.9 S 13 26 7 14 1008.4 - 1.2
22/04:30pm 20.5 19.2 15.9 75 2.8 ENE 17 19 9 10 1007.5 - 1.0
22/04:00pm 24.2 22.7 11.9 46 7.1 ESE 11 19 6 10 1007.4 - 0.0
22/03:30pm 24.7 23.1 11.5 43 7.6 SSE 11 19 6 10 1007.6 - 0.0
22/03:00pm 24.9 24.3 11.7 43 7.6 ENE 6 15 3 8 1007.9 1007.4 0.0
22/02:30pm 26.0 25.8 11.7 41 8.3 NNW 4 9 2 5 1008.4 - 0.0
22/02:00pm 25.5 24.2 11.2 40 8.2 NNW 9 17 5 9 1008.8 - 0.0
22/01:30pm 24.2 23.3 11.5 45 7.3 NE 7 13 4 7 1009.5 - 0.0
22/01:00pm 25.0 23.9 12.1 44 7.5 W 9 15 5 8 1009.9 - 0.0
22/12:30pm 23.1 22.5 12.4 51 6.2 NNW 7 15 4 8 1010.7 - 0.0
22/12:00pm 22.9 22.0 12.5 52 6.0 WSW 9 15 5 8 1011.4 1010.9 0.0
22/11:30am 22.0 21.9 12.2 53 5.6 SSW 4 13 2 7 1011.9 - 0.0
22/11:00am 20.9 20.5 13.1 61 4.5 SSW 7 11 4 6 1012.1 - 0.0
22/10:30am 19.7 19.8 13.9 69 3.4 SW 6 11 3 6 1012.8 - 0.0
22/10:00am 17.9 18.5 13.0 73 2.8 SSW 2 11 1 6 1013.0 - 0.0
22/09:30am 16.5 16.4 13.2 81 1.9 WNW 6 9 3 5 1013.1 - 0.0
22/09:00am 15.4 15.2 13.5 88 1.1 N 7 13 4 7 1013.1 1012.6 5.6
22/08:30am 13.8 13.4 12.3 91 0.8 N 6 9 3 5 1012.6 - 5.6
22/08:00am 12.5 11.3 11.6 94 0.5 N 9 11 5 6 1012.8 - 5.6
22/07:30am 10.6 10.3 10.0 96 0.3 NE 2 7 1 4 1012.4 - 5.6
22/07:00am 10.0 9.9 9.6 97 0.2 CALM 0 7 0 4 1011.8 - 5.6
22/06:30am 10.1 10.0 9.5 96 0.3 CALM 0 0 0 0 1011.8 - 5.6
22/06:00am 10.6 8.2 10.2 97 0.2 NNE 13 15 7 8 1011.3 1010.7 5.4
22/05:30am 10.3 7.5 9.9 97 0.2 NE 15 17 8 9 1010.5 - 5.4
22/05:00am 10.1 8.9 9.5 96 0.3 N 6 9 3 5 1010.3 - 5.4
22/04:30am 10.4 10.4 9.8 96 0.3 CALM 0 0 0 0 1010.4 - 5.4
22/04:00am 11.0 11.3 10.8 99 0.1 CALM 0 0 0 0 1010.5 - 5.4
22/03:30am 11.5 11.1 11.1 97 0.2 SW 4 9 2 5 1010.4 - 5.4
22/03:00am 11.6 12.0 11.2 97 0.2 CALM 0 0 0 0 1010.7 1010.2 5.4
22/02:30am 11.9 12.3 11.3 96 0.3 CALM 0 0 0 0 1011.1 - 5.4
22/02:00am 12.0 11.1 11.4 96 0.3 N 7 9 4 5 1011.3 - 5.4
22/01:30am 12.0 12.1 11.4 96 0.3 WSW 2 6 1 3 1011.6 - 5.4
22/01:00am 11.9 10.6 11.1 95 0.4 SSW 9 13 5 7 1012.4 - 5.4
22/12:30am 11.7 12.0 10.9 95 0.4 CALM 0 6 0 3 1012.2 - 5.4
22/12:00am 12.0 11.0 11.1 94 0.5 S 7 15 4 8 1012.7 1012.2 5.4
 
Date/Time
CST
Temp
°C
App
Temp
°C
Dew
Point
°C
Rel
Hum
%
Delta-T
°C
Wind Press
QNH
hPa
Press
MSL
hPa
Rain since
9am
mm
Dir  Spd
km/h
Gust
km/h
Spd
kts
Gust
kts
21/11:30pm 12.0 11.0 10.9 93 0.6 SSW 7 17 4 9 1012.2 - 5.4
21/11:00pm 11.5 10.0 10.4 93 0.6 N 9 13 5 7 1012.0 - 5.4
21/10:30pm 11.5 10.3 10.4 93 0.6 NNE 7 9 4 5 1012.0 - 5.4
21/10:00pm 11.6 10.5 10.7 94 0.5 NNE 7 9 4 5 1012.0 - 5.4
21/09:30pm 11.8 10.8 10.9 94 0.5 NNE 7 9 4 5 1011.9 - 5.4
21/09:00pm 12.4 11.1 11.1 92 0.7 NNE 9 13 5 7 1011.9 1011.3 5.4
21/08:30pm 12.7 10.6 11.2 91 0.8 NNE 13 15 7 8 1012.2 - 5.4
21/08:00pm 12.4 9.9 11.1 92 0.7 NNE 15 19 8 10 1012.1 - 5.4
21/07:30pm 12.3 10.9 11.0 92 0.7 NE 9 11 5 6 1012.1 - 5.4
21/07:00pm 12.5 11.6 11.4 93 0.6 NE 7 11 4 6 1012.1 - 5.4
21/06:30pm 12.7 10.7 11.6 93 0.6 NE 13 19 7 10 1011.7 - 5.4

Other Formats:

Comma delimited format used in spreadsheet applications
http://www.bom.gov.au/fwo/IDD60801/IDD60801.94327.axf

JavaScript Object Notation format (JSON) in row-major order
http://www.bom.gov.au/fwo/IDD60801/IDD60801.94327.json